Time;durP1;ratioP1;P1;durP2;ratioP2;P2;SDS_P1;SDS_P2;PMS_P1;PMS_P2;Temp;Humidity;BMP_temperature;BMP_pressure;BME280_temperature;BME280_humidity;BME280_pressure;Samples;Min_cycle;Max_cycle;Signal;HPM_P1;HPM_P2
2022/05/16 04:01:09;;;;;;;3.80;3.42;;;11.00;99.90;;;;;;5622197;23;20313;-69
2022/05/16 04:03:37;;;;;;;2.75;2.60;;;11.00;99.90;;;;;;4973741;28;20573;-69
2022/05/16 04:06:04;;;;;;;4.22;3.15;;;11.00;99.90;;;;;;4974125;28;20605;-69
2022/05/16 04:08:32;;;;;;;2.88;2.78;;;11.00;99.90;;;;;;4973860;28;20288;-68
2022/05/16 04:10:59;;;;;;;3.78;3.30;;;11.00;99.90;;;;;;4972609;28;20236;-68
2022/05/16 04:13:26;;;;;;;2.83;2.60;;;11.00;99.90;;;;;;4971159;28;20655;-68
2022/05/16 04:15:54;;;;;;;2.97;2.88;;;11.00;99.90;;;;;;4973797;28;20219;-67
2022/05/16 04:18:22;;;;;;;3.00;2.53;;;11.00;99.90;;;;;;4973682;28;20263;-67
2022/05/16 04:20:49;;;;;;;7.35;3.17;;;11.10;99.90;;;;;;4973461;28;20306;-67
2022/05/16 04:23:15;;;;;;;3.75;3.20;;;11.10;99.90;;;;;;4973582;28;20579;-68
2022/05/16 04:25:42;;;;;;;3.92;3.60;;;11.10;99.90;;;;;;4973545;28;20216;-68
2022/05/16 04:28:11;;;;;;;3.75;3.42;;;11.20;99.90;;;;;;4972558;28;20212;-67
2022/05/16 04:30:38;;;;;;;3.47;2.13;;;11.50;99.90;;;;;;4973161;28;20598;-69
2022/05/16 04:33:06;;;;;;;3.27;2.23;;;12.20;99.90;;;;;;4973622;28;20208;-67
2022/05/16 04:35:36;;;;;;;2.27;2.27;;;12.70;99.90;;;;;;4973916;28;20884;-67
2022/05/16 04:38:03;;;;;;;3.30;2.50;;;13.30;99.90;;;;;;4973461;28;20814;-67
2022/05/16 04:40:30;;;;;;;2.90;2.77;;;14.00;99.90;;;;;;4973393;28;20559;-68
2022/05/16 04:42:57;;;;;;;3.50;3.20;;;14.50;99.90;;;;;;4972904;28;20463;-67
2022/05/16 04:45:25;;;;;;;2.37;2.30;;;15.20;99.90;;;;;;4973736;28;20460;-65
2022/05/16 04:47:54;;;;;;;3.03;2.53;;;15.90;99.90;;;;;;4973622;28;20917;-67
2022/05/16 04:50:23;;;;;;;2.40;2.10;;;16.50;99.90;;;;;;4972831;28;20488;-66
2022/05/16 04:52:52;;;;;;;3.60;2.07;;;16.90;99.90;;;;;;4972999;28;20545;-66
2022/05/16 04:55:18;;;;;;;2.17;2.07;;;17.30;99.90;;;;;;4973388;28;20828;-66
2022/05/16 04:57:45;;;;;;;2.97;2.70;;;17.60;99.90;;;;;;4972683;28;20799;-66
2022/05/16 05:00:13;;;;;;;3.40;2.60;;;17.80;99.90;;;;;;4972356;28;20471;-67
2022/05/16 05:02:40;;;;;;;2.47;2.27;;;18.10;99.90;;;;;;4971746;28;20948;-67
2022/05/16 05:05:09;;;;;;;3.43;2.20;;;18.70;99.90;;;;;;4972750;28;20474;-67
2022/05/16 05:07:36;;;;;;;2.60;2.40;;;19.30;99.90;;;;;;4972804;28;20821;-67
2022/05/16 05:15:36;;;;;;;2.50;2.30;;;19.60;99.90;;;;;;4972835;28;20447;-68
2022/05/16 05:18:02;;;;;;;1.93;1.93;;;19.10;99.90;;;;;;4972971;28;20467;-67
2022/05/16 05:20:29;;;;;;;2.33;2.13;;;18.50;99.90;;;;;;4972520;28;20463;-67
2022/05/16 05:22:56;;;;;;;3.50;2.40;;;17.80;99.90;;;;;;4972403;28;20490;-66
2022/05/16 05:25:24;;;;;;;3.20;2.00;;;17.30;99.90;;;;;;4972913;28;20468;-67
2022/05/16 05:27:51;;;;;;;2.20;2.10;;;16.90;99.90;;;;;;4971933;28;20468;-68
2022/05/16 05:30:20;;;;;;;3.93;2.17;;;16.50;99.90;;;;;;4971945;28;20503;-67
2022/05/16 05:32:47;;;;;;;3.33;2.60;;;16.10;99.90;;;;;;4974334;28;20464;-68
2022/05/16 05:35:15;;;;;;;3.20;2.40;;;15.90;99.90;;;;;;4977236;28;20885;-69
2022/05/16 05:37:42;;;;;;;3.83;2.73;;;15.70;99.90;;;;;;4973341;28;20464;-68
2022/05/16 05:40:10;;;;;;;2.10;2.00;;;15.60;99.90;;;;;;4972097;28;20466;-67
2022/05/16 05:42:38;;;;;;;4.30;2.50;;;15.50;99.90;;;;;;4971352;28;20620;-66
2022/05/16 05:45:07;;;;;;;2.27;2.17;;;15.40;99.90;;;;;;4972365;28;20472;-68
2022/05/16 05:47:34;;;;;;;3.03;2.20;;;15.40;99.90;;;;;;4972338;28;20464;-68
2022/05/16 05:50:01;;;;;;;2.57;2.00;;;15.40;99.90;;;;;;4968674;28;20912;-67
2022/05/16 05:52:29;;;;;;;5.03;2.50;;;15.60;99.90;;;;;;4969548;28;20637;-68
2022/05/16 05:54:56;;;;;;;2.93;2.10;;;15.80;99.90;;;;;;4972339;28;20475;-69
2022/05/16 05:57:25;;;;;;;3.03;2.83;;;15.90;99.90;;;;;;4970923;28;20825;-68
2022/05/16 05:59:53;;;;;;;2.53;2.30;;;16.50;99.90;;;;;;4971657;28;20467;-68
2022/05/16 06:02:20;;;;;;;2.57;2.37;;;17.10;99.90;;;;;;4971781;28;20499;-68
2022/05/16 06:04:47;;;;;;;2.87;2.77;;;17.90;99.90;;;;;;4972301;28;20792;-68
2022/05/16 06:07:14;;;;;;;3.03;2.30;;;18.40;99.90;;;;;;4972033;28;20839;-67
2022/05/16 06:09:42;;;;;;;2.00;2.00;;;18.80;99.90;;;;;;4971292;28;20488;-68
2022/05/16 06:12:10;;;;;;;3.10;2.20;;;19.30;99.90;;;;;;4971645;28;20585;-68
2022/05/16 06:14:37;;;;;;;2.40;2.27;;;19.80;99.90;;;;;;4971238;28;20814;-67
2022/05/16 06:17:06;;;;;;;2.20;2.10;;;19.70;99.90;;;;;;4972079;28;20526;-67
2022/05/16 06:19:35;;;;;;;3.60;3.40;;;19.50;99.90;;;;;;4971496;28;20915;-68
2022/05/16 06:22:02;;;;;;;2.03;1.93;;;19.60;99.90;;;;;;4971739;28;20484;-67
2022/05/16 06:27:13;;;;;;;2.10;1.90;;;19.90;99.90;;;;;;4971607;28;20462;-68
2022/05/16 06:29:40;;;;;;;4.40;2.17;;;20.20;99.90;;;;;;4971109;28;20835;-68
2022/05/16 06:32:08;;;;;;;2.53;2.33;;;20.40;99.90;;;;;;4971651;28;20575;-69
2022/05/16 06:34:35;;;;;;;2.13;2.00;;;20.80;99.90;;;;;;4971968;28;20475;-67
2022/05/16 06:37:01;;;;;;;2.67;2.47;;;21.30;99.90;;;;;;4971787;28;20944;-67
2022/05/16 06:39:28;;;;;;;2.20;2.10;;;21.70;99.90;;;;;;4971824;28;20464;-67
2022/05/16 06:41:55;;;;;;;2.10;2.03;;;21.70;99.90;;;;;;4970670;28;20496;-68
2022/05/16 06:44:22;;;;;;;2.30;2.20;;;21.90;99.70;;;;;;4971310;28;20471;-67
2022/05/16 06:46:49;;;;;;;2.33;2.23;;;22.20;99.20;;;;;;4972134;28;20460;-68
2022/05/16 06:49:17;;;;;;;2.73;2.40;;;22.50;99.40;;;;;;4971558;28;20830;-68
2022/05/16 06:51:44;;;;;;;2.60;2.40;;;23.20;98.30;;;;;;4971355;28;20518;-67
2022/05/16 06:54:10;;;;;;;2.13;1.90;;;23.60;96.30;;;;;;4971781;28;20471;-68
2022/05/16 06:56:37;;;;;;;2.57;2.50;;;23.50;95.90;;;;;;4971638;28;20536;-67
2022/05/16 06:59:04;;;;;;;2.27;2.17;;;23.40;95.60;;;;;;4971642;28;20475;-67
2022/05/16 07:01:30;;;;;;;2.50;2.30;;;23.40;96.00;;;;;;4971440;28;20498;-67
2022/05/16 07:03:57;;;;;;;2.37;2.30;;;23.50;95.30;;;;;;4971722;28;20525;-68
2022/05/16 07:06:25;;;;;;;3.53;2.50;;;23.30;94.40;;;;;;4971499;28;20973;-69
2022/05/16 07:08:53;;;;;;;2.67;2.57;;;23.00;95.30;;;;;;4971556;28;20826;-67
2022/05/16 07:11:19;;;;;;;3.10;2.90;;;23.10;95.20;;;;;;4970488;28;20472;-68
2022/05/16 07:13:46;;;;;;;2.90;2.27;;;23.50;95.10;;;;;;4971008;28;20465;-68
2022/05/16 07:16:13;;;;;;;2.97;2.57;;;23.60;94.50;;;;;;4971543;28;20462;-68
2022/05/16 07:18:39;;;;;;;2.63;2.43;;;24.00;93.50;;;;;;4971164;28;20470;-68
2022/05/16 07:21:07;;;;;;;2.40;2.30;;;24.40;93.10;;;;;;4970716;28;21027;-68
2022/05/16 07:23:35;;;;;;;2.30;2.13;;;24.30;92.60;;;;;;4971499;28;20503;-68
2022/05/16 07:28:46;;;;;;;2.77;2.50;;;24.40;92.30;;;;;;4974150;28;20455;-68
2022/05/16 07:31:13;;;;;;;2.27;2.10;;;24.40;91.80;;;;;;4973956;28;20979;-67
2022/05/16 07:33:39;;;;;;;2.27;2.27;;;24.20;91.30;;;;;;4975143;28;20889;-67
2022/05/16 07:36:07;;;;;;;4.33;2.53;;;24.70;92.00;;;;;;4975383;28;20517;-68
2022/05/16 07:38:35;;;;;;;2.50;2.30;;;25.00;91.30;;;;;;4974579;28;20474;-66
2022/05/16 07:41:02;;;;;;;2.30;2.20;;;25.30;90.90;;;;;;4973858;28;20498;-68
2022/05/16 07:43:29;;;;;;;2.23;2.20;;;25.40;90.50;;;;;;4973818;28;20790;-69
2022/05/16 07:45:56;;;;;;;2.20;2.10;;;25.50;90.00;;;;;;4974993;28;20467;-68
2022/05/16 07:48:23;;;;;;;2.50;2.40;;;25.30;87.70;;;;;;4974805;28;20478;-69
2022/05/16 07:50:50;;;;;;;2.63;1.90;;;25.10;88.60;;;;;;4973921;28;21006;-67
2022/05/16 07:53:17;;;;;;;2.20;2.10;;;24.80;89.00;;;;;;4974556;28;20536;-68
2022/05/16 07:55:46;;;;;;;2.30;2.30;;;24.80;88.50;;;;;;4975007;28;20573;-68
2022/05/16 07:58:14;;;;;;;2.93;2.73;;;24.30;88.50;;;;;;4973389;28;20467;-68
2022/05/16 08:00:40;;;;;;;3.03;2.77;;;24.50;89.50;;;;;;4973877;28;20502;-69
2022/05/16 08:03:11;;;;;;;4.47;2.87;;;24.80;89.40;;;;;;4974683;28;20529;-67
2022/05/16 08:05:37;;;;;;;2.40;2.30;;;24.70;89.50;;;;;;4974524;28;20474;-68
2022/05/16 08:10:50;;;;;;;2.67;2.47;;;24.70;88.20;;;;;;4974060;28;20552;-68
2022/05/16 08:13:17;;;;;;;2.90;2.70;;;24.80;88.50;;;;;;4973390;28;20468;-69
2022/05/16 08:15:44;;;;;;;2.80;2.70;;;24.40;89.00;;;;;;4975439;28;20478;-68
2022/05/16 08:18:12;;;;;;;2.47;2.33;;;23.90;89.50;;;;;;4972304;28;20495;-68
2022/05/16 08:20:42;;;;;;;2.80;2.60;;;23.70;90.30;;;;;;4977138;28;20501;-68
2022/05/16 08:23:10;;;;;;;2.23;2.13;;;23.60;91.10;;;;;;4981476;28;20475;-67
2022/05/16 08:25:37;;;;;;;4.13;2.10;;;23.40;91.10;;;;;;4976881;28;20471;-67
2022/05/16 08:28:05;;;;;;;2.40;2.20;;;23.40;91.40;;;;;;4976665;28;20551;-69
2022/05/16 08:30:32;;;;;;;2.23;2.20;;;23.40;90.60;;;;;;4976788;28;20558;-68
2022/05/16 08:33:01;;;;;;;2.30;2.20;;;23.20;90.60;;;;;;4977430;28;20519;-68
2022/05/16 08:35:28;;;;;;;2.00;1.90;;;23.20;90.80;;;;;;4977436;28;20475;-68
2022/05/16 08:40:48;;;;;;;1.73;1.63;;;22.80;90.90;;;;;;4974496;28;20462;-68
2022/05/16 08:43:21;;;;;;;2.20;2.20;;;22.80;91.20;;;;;;4973493;28;20482;-67
2022/05/16 08:45:57;;;;;;;2.40;2.30;;;22.80;91.40;;;;;;4974481;28;20894;-68
2022/05/16 08:48:29;;;;;;;1.97;1.90;;;22.70;90.90;;;;;;4973616;28;20476;-67
2022/05/16 08:51:04;;;;;;;2.30;2.20;;;22.60;91.50;;;;;;4973076;28;20565;-69
2022/05/16 08:53:39;;;;;;;2.10;2.00;;;22.70;91.20;;;;;;4973429;28;20964;-69
2022/05/16 08:56:10;;;;;;;2.77;2.57;;;23.00;91.50;;;;;;4972784;28;20566;-67
2022/05/16 08:58:42;;;;;;;2.20;2.20;;;23.00;90.60;;;;;;4972879;28;20467;-67
2022/05/16 09:01:12;;;;;;;2.43;2.00;;;23.00;90.00;;;;;;4972388;28;20547;-69
2022/05/16 09:03:43;;;;;;;7.53;2.70;;;22.90;90.90;;;;;;4972863;28;20872;-68
2022/05/16 09:06:16;;;;;;;2.73;2.53;;;22.80;90.80;;;;;;4973143;28;20897;-69
2022/05/16 09:08:49;;;;;;;3.23;2.93;;;22.70;90.80;;;;;;4972788;28;20514;-67
2022/05/16 09:11:21;;;;;;;3.60;2.53;;;22.70;90.90;;;;;;4971968;28;20495;-68
2022/05/16 09:13:54;;;;;;;2.70;2.60;;;22.70;90.90;;;;;;4972499;28;20499;-66
2022/05/16 09:16:39;;;;;;;2.47;2.33;;;22.70;90.50;;;;;;4972976;28;20538;-67
2022/05/16 09:19:26;;;;;;;2.50;2.50;;;22.70;90.20;;;;;;4972847;28;20498;-68
2022/05/16 09:22:05;;;;;;;2.27;2.17;;;22.70;90.80;;;;;;4970226;28;20996;-68
2022/05/16 09:24:35;;;;;;;2.83;2.73;;;22.80;90.50;;;;;;4972785;28;20463;-67
2022/05/16 09:27:08;;;;;;;2.80;2.60;;;22.90;90.60;;;;;;4972277;28;20468;-67
2022/05/16 09:29:39;;;;;;;3.37;2.13;;;22.80;90.10;;;;;;4971647;28;20471;-68
2022/05/16 09:32:10;;;;;;;2.27;2.07;;;22.90;89.80;;;;;;4972546;28;20562;-67
2022/05/16 09:34:37;;;;;;;2.20;2.20;;;22.80;89.80;;;;;;4972550;28;20571;-67
2022/05/16 09:37:05;;;;;;;3.43;2.00;;;22.80;90.30;;;;;;4972451;28;21030;-68
2022/05/16 09:39:33;;;;;;;2.70;2.50;;;22.80;88.60;;;;;;4971804;28;20460;-69
2022/05/16 09:42:03;;;;;;;2.27;2.17;;;22.80;89.10;;;;;;4971676;28;20475;-67
2022/05/16 09:44:33;;;;;;;2.00;2.00;;;22.90;90.00;;;;;;4971798;28;20517;-67
2022/05/16 09:47:35;;;;;;;2.50;2.37;;;22.90;89.10;;;;;;4972282;28;20483;-69
2022/05/16 09:50:09;;;;;;;2.83;2.20;;;23.00;88.50;;;;;;4959949;28;20573;-68
2022/05/16 09:52:37;;;;;;;2.47;2.37;;;23.10;87.70;;;;;;4970708;28;20487;-68
2022/05/16 09:55:07;;;;;;;2.50;2.30;;;23.10;88.80;;;;;;4972228;28;20505;-68
2022/05/16 09:57:41;;;;;;;2.37;2.00;;;23.10;87.90;;;;;;4971409;28;20472;-66
2022/05/16 10:00:19;;;;;;;2.00;2.00;;;23.10;87.90;;;;;;4971527;28;20459;-67
2022/05/16 10:02:55;;;;;;;2.47;2.30;;;23.10;87.00;;;;;;4971662;28;20486;-68
2022/05/16 10:05:27;;;;;;;3.23;2.40;;;23.10;88.00;;;;;;4971833;28;20844;-67
2022/05/16 10:08:01;;;;;;;2.10;2.00;;;23.10;88.20;;;;;;4972104;28;20551;-67
2022/05/16 10:10:33;;;;;;;2.07;1.97;;;23.20;87.30;;;;;;4971279;28;21018;-67
2022/05/16 10:13:01;;;;;;;2.40;2.40;;;23.20;87.90;;;;;;4995465;23;20463;-71
2022/05/16 10:15:28;;;;;;;4.63;2.27;;;23.30;86.50;;;;;;4971712;28;20546;-70
2022/05/16 10:17:57;;;;;;;3.13;2.20;;;23.40;86.40;;;;;;4971994;28;20463;-70
2022/05/16 10:20:26;;;;;;;2.60;2.40;;;23.60;87.20;;;;;;4971731;28;20455;-69
2022/05/16 10:22:57;;;;;;;3.47;2.00;;;23.50;85.90;;;;;;4971859;28;20460;-69
2022/05/16 10:25:34;;;;;;;2.20;2.13;;;23.50;85.20;;;;;;4953063;28;20473;-69
2022/05/16 10:28:03;;;;;;;3.73;2.70;;;23.50;85.80;;;;;;4951858;28;20957;-70
2022/05/16 10:33:24;;;;;;;2.10;2.00;;;23.50;86.40;;;;;;4952283;28;20489;-70
2022/05/16 10:33:27;;;;;;;2.60;2.40;;;23.50;87.40;;;;;;4952407;28;20824;-70
2022/05/16 10:35:58;;;;;;;2.20;1.90;;;23.50;86.80;;;;;;4952818;28;20937;-70
2022/05/16 10:38:36;;;;;;;2.60;2.40;;;23.70;86.50;;;;;;4953092;28;20964;-69
2022/05/16 10:41:06;;;;;;;3.23;2.53;;;23.80;85.60;;;;;;4961928;28;20519;-69
2022/05/16 10:43:41;;;;;;;2.17;2.17;;;23.80;85.50;;;;;;4967508;28;20480;-70
2022/05/16 10:46:15;;;;;;;2.13;2.13;;;23.90;85.00;;;;;;4969307;28;20468;-71
2022/05/16 10:48:48;;;;;;;2.30;2.20;;;23.90;85.30;;;;;;4965796;28;20508;-71
2022/05/16 10:51:19;;;;;;;2.50;2.23;;;24.00;83.70;;;;;;4952398;28;20519;-71
2022/05/16 10:53:56;;;;;;;2.27;2.10;;;24.00;85.00;;;;;;4952799;28;20531;-71
2022/05/16 10:56:40;;;;;;;2.57;2.40;;;24.00;84.90;;;;;;4952268;28;20824;-71
2022/05/16 10:59:17;;;;;;;2.47;2.27;;;24.10;86.40;;;;;;4951869;28;20468;-71
2022/05/16 11:01:48;;;;;;;2.73;2.53;;;24.20;85.10;;;;;;4953774;28;21017;-71
2022/05/16 11:04:38;;;;;;;2.47;2.30;;;24.30;84.40;;;;;;4956476;28;20494;-70
2022/05/16 11:07:20;;;;;;;2.03;1.93;;;24.20;83.00;;;;;;4955785;28;20570;-71
2022/05/16 11:09:54;;;;;;;2.50;2.33;;;24.00;84.30;;;;;;4955341;28;20819;-70
2022/05/16 11:12:26;;;;;;;2.37;2.20;;;24.20;84.20;;;;;;4955049;28;20496;-70
2022/05/16 11:15:00;;;;;;;3.30;3.10;;;24.20;83.90;;;;;;4955983;28;20496;-69
2022/05/16 11:17:32;;;;;;;4.70;2.23;;;24.20;83.40;;;;;;4955436;28;20480;-70
2022/05/16 11:20:08;;;;;;;2.20;2.10;;;24.40;83.10;;;;;;4955736;28;20507;-70
2022/05/16 11:22:39;;;;;;;3.40;2.10;;;24.40;83.30;;;;;;4955716;28;20539;-70
2022/05/16 11:25:15;;;;;;;2.23;2.03;;;24.50;83.30;;;;;;4955682;28;21055;-70
2022/05/16 11:28:01;;;;;;;2.43;2.40;;;24.80;82.20;;;;;;4954720;28;20471;-69
2022/05/16 11:30:42;;;;;;;3.50;2.20;;;24.80;82.00;;;;;;4956034;29;20470;-70
2022/05/16 11:33:17;;;;;;;1.73;1.63;;;24.80;81.50;;;;;;4957439;28;20508;-70
2022/05/16 11:35:48;;;;;;;4.03;2.07;;;24.80;81.20;;;;;;4955969;28;20475;-71
2022/05/16 11:38:39;;;;;;;2.73;2.53;;;24.70;81.50;;;;;;4955215;28;20465;-71
2022/05/16 11:41:23;;;;;;;2.53;2.33;;;24.70;80.90;;;;;;4949456;28;20567;-72
2022/05/16 11:43:52;;;;;;;2.70;2.57;;;24.70;82.50;;;;;;4955172;28;20493;-71
2022/05/16 11:46:29;;;;;;;2.17;2.07;;;24.80;82.60;;;;;;4955642;28;20473;-71
2022/05/16 11:49:10;;;;;;;3.80;2.30;;;25.00;81.30;;;;;;4955370;28;20468;-71
2022/05/16 11:51:51;;;;;;;1.90;1.80;;;24.90;81.20;;;;;;4954548;28;20826;-71
2022/05/16 11:54:23;;;;;;;2.10;1.90;;;25.00;81.40;;;;;;4955465;28;20551;-71
2022/05/16 12:02:42;;;;;;;2.60;2.50;;;25.10;79.70;;;;;;4954771;28;20452;-71
2022/05/16 12:05:12;;;;;;;1.80;1.70;;;25.20;79.60;;;;;;4954938;28;20547;-71
2022/05/16 12:07:46;;;;;;;2.20;2.10;;;25.20;79.90;;;;;;4954531;28;20957;-71
2022/05/16 12:10:23;;;;;;;2.17;2.17;;;25.20;79.50;;;;;;4954112;28;20471;-71
2022/05/16 12:13:18;;;;;;;2.07;1.97;;;25.30;80.50;;;;;;4953595;28;20470;-71
2022/05/16 12:15:46;;;;;;;1.77;1.70;;;25.30;78.10;;;;;;4954871;28;20547;-71
2022/05/16 12:18:35;;;;;;;2.27;2.13;;;25.30;78.00;;;;;;4947183;28;20497;-72
2022/05/16 12:21:05;;;;;;;2.50;2.40;;;25.30;78.80;;;;;;4948486;29;20535;-71
2022/05/16 12:24:11;;;;;;;2.33;2.23;;;25.30;78.50;;;;;;4954626;28;20861;-72
2022/05/16 12:27:04;;;;;;;2.17;1.93;;;25.30;78.70;;;;;;4953878;28;20965;-71
2022/05/16 12:29:43;;;;;;;2.83;2.63;;;25.40;78.20;;;;;;4953860;28;20457;-72
2022/05/16 12:32:21;;;;;;;2.80;2.57;;;25.40;78.60;;;;;;4954432;28;20851;-71
2022/05/16 12:34:50;;;;;;;2.30;2.20;;;25.40;78.00;;;;;;4954476;28;20551;-72
2022/05/16 12:37:19;;;;;;;2.33;2.27;;;25.40;77.40;;;;;;4954575;28;21079;-71
2022/05/16 12:39:57;;;;;;;2.07;2.00;;;25.50;77.90;;;;;;4953976;28;20460;-72
2022/05/16 12:42:46;;;;;;;2.60;2.40;;;25.50;77.00;;;;;;4953492;28;20929;-71
2022/05/16 12:45:42;;;;;;;2.60;2.50;;;25.50;77.10;;;;;;4954325;28;20491;-71
2022/05/16 12:48:38;;;;;;;2.70;2.60;;;25.60;77.40;;;;;;4954351;28;20535;-71
2022/05/16 12:51:31;;;;;;;3.00;2.80;;;25.70;77.10;;;;;;4935229;28;20594;-71
2022/05/16 12:54:22;;;;;;;2.00;1.90;;;25.80;76.50;;;;;;4953634;28;20551;-71
2022/05/16 12:56:51;;;;;;;3.00;2.80;;;26.00;76.00;;;;;;4953628;28;20464;-72
2022/05/16 12:59:32;;;;;;;2.80;2.60;;;26.00;73.80;;;;;;4953422;28;20460;-71
2022/05/16 13:02:12;;;;;;;2.33;2.30;;;25.90;72.90;;;;;;4953893;28;20531;-71
2022/05/16 13:05:04;;;;;;;2.63;2.40;;;25.90;73.10;;;;;;4953635;28;20515;-71
2022/05/16 13:07:39;;;;;;;4.27;2.83;;;26.00;74.80;;;;;;4953666;28;20504;-71
2022/05/16 13:10:12;;;;;;;2.30;2.20;;;26.10;73.80;;;;;;4953248;28;20545;-71
2022/05/16 13:12:52;;;;;;;2.63;2.60;;;26.20;72.80;;;;;;4953097;28;21062;-72
2022/05/16 13:15:26;;;;;;;2.30;2.20;;;26.20;73.30;;;;;;4953827;28;20538;-71
2022/05/16 13:17:58;;;;;;;2.60;2.40;;;26.30;72.80;;;;;;4953983;28;20515;-72
2022/05/16 13:20:31;;;;;;;2.37;2.27;;;26.40;73.60;;;;;;4953301;28;20479;-71
2022/05/16 13:22:59;;;;;;;2.57;2.47;;;26.40;72.30;;;;;;4953541;28;20465;-71
2022/05/16 13:25:27;;;;;;;2.50;2.40;;;26.40;72.10;;;;;;4953308;28;20472;-71
2022/05/16 13:30:40;;;;;;;2.80;2.60;;;26.40;72.40;;;;;;4952402;29;20580;-72
2022/05/16 13:33:24;;;;;;;2.77;2.70;;;26.50;71.80;;;;;;4952917;28;20559;-71
2022/05/16 13:35:51;;;;;;;2.90;2.70;;;26.60;72.50;;;;;;4953245;28;20961;-71
2022/05/16 13:38:18;;;;;;;2.33;2.23;;;26.60;72.40;;;;;;4953134;28;20492;-71
2022/05/16 13:40:48;;;;;;;2.83;2.70;;;26.60;72.40;;;;;;4952931;28;20605;-71
2022/05/16 13:43:16;;;;;;;3.70;2.70;;;26.60;72.00;;;;;;4952423;28;20471;-71
2022/05/16 13:45:43;;;;;;;2.80;2.60;;;26.60;71.40;;;;;;4953316;28;20547;-71
2022/05/16 13:48:13;;;;;;;2.33;2.23;;;26.70;72.10;;;;;;4952571;28;20868;-71
2022/05/16 13:50:43;;;;;;;2.87;2.77;;;26.60;70.90;;;;;;4952766;28;20469;-71
2022/05/16 13:53:10;;;;;;;2.57;2.37;;;26.60;71.30;;;;;;4952695;28;20492;-71
2022/05/16 13:55:44;;;;;;;2.67;2.57;;;26.60;72.00;;;;;;4953117;28;20484;-71
2022/05/16 13:58:13;;;;;;;2.53;2.43;;;26.60;71.40;;;;;;4952022;28;20468;-72
2022/05/16 14:00:44;;;;;;;2.23;2.23;;;26.60;70.90;;;;;;4952273;28;20464;-72
2022/05/16 14:03:27;;;;;;;3.80;3.10;;;26.50;70.90;;;;;;4952400;28;20461;-72
2022/05/16 14:05:56;;;;;;;2.90;2.73;;;26.60;71.90;;;;;;4952872;28;21032;-72
2022/05/16 14:08:35;;;;;;;2.60;2.50;;;26.60;71.50;;;;;;4952769;28;20473;-72
2022/05/16 14:11:03;;;;;;;3.20;3.10;;;26.60;71.40;;;;;;4952248;28;20519;-72
2022/05/16 14:13:31;;;;;;;3.57;3.27;;;26.70;71.70;;;;;;4952262;28;20505;-72
2022/05/16 14:16:06;;;;;;;2.57;2.47;;;26.80;71.40;;;;;;4952985;28;20468;-72
2022/05/16 14:18:40;;;;;;;2.73;2.50;;;26.80;70.70;;;;;;4944936;28;20889;-73
2022/05/16 14:21:17;;;;;;;3.03;2.87;;;26.80;70.90;;;;;;4952633;28;20467;-72
2022/05/16 14:23:58;;;;;;;2.93;2.83;;;26.70;70.60;;;;;;4952726;28;20484;-72
2022/05/16 14:26:29;;;;;;;2.80;2.70;;;26.70;70.40;;;;;;4952704;28;20551;-72
2022/05/16 14:28:59;;;;;;;2.50;2.40;;;26.80;71.30;;;;;;4952042;28;21027;-72
2022/05/16 14:31:28;;;;;;;3.27;3.17;;;26.90;70.90;;;;;;4951994;28;20472;-72
2022/05/16 14:33:59;;;;;;;2.57;2.47;;;26.80;70.10;;;;;;4952438;28;20499;-72
2022/05/16 14:36:40;;;;;;;2.57;2.40;;;26.90;70.00;;;;;;4955850;28;20469;-72
2022/05/16 14:39:16;;;;;;;3.20;3.10;;;26.90;70.60;;;;;;4956445;28;20920;-72
2022/05/16 14:42:04;;;;;;;3.10;2.90;;;27.00;70.00;;;;;;4955862;28;20528;-71
2022/05/16 14:44:36;;;;;;;2.33;2.33;;;27.00;68.50;;;;;;4955791;28;20484;-71
2022/05/16 14:47:16;;;;;;;2.13;2.00;;;27.10;69.90;;;;;;4956443;28;20553;-72
2022/05/16 14:49:43;;;;;;;4.83;2.27;;;27.10;71.00;;;;;;4955075;28;20469;-72
2022/05/16 14:52:13;;;;;;;2.10;1.80;;;27.10;70.90;;;;;;4954453;28;20481;-70
2022/05/16 14:54:48;;;;;;;2.33;2.27;;;27.10;70.40;;;;;;4956305;28;20555;-69
2022/05/16 14:57:15;;;;;;;2.97;2.90;;;27.10;70.40;;;;;;4955958;28;20839;-71
2022/05/16 14:59:42;;;;;;;4.00;2.60;;;27.10;70.80;;;;;;4955180;28;20994;-71
2022/05/16 15:04:54;;;;;;;2.97;2.77;;;26.90;70.00;;;;;;4956076;28;20618;-69
2022/05/16 15:07:22;;;;;;;2.80;2.60;;;27.00;70.40;;;;;;4955658;28;20468;-71
2022/05/16 15:09:49;;;;;;;2.40;2.30;;;26.90;69.70;;;;;;4955563;28;20519;-70
2022/05/16 15:12:16;;;;;;;2.90;2.63;;;26.80;69.80;;;;;;4955363;28;20570;-70
2022/05/16 15:14:43;;;;;;;2.63;2.43;;;26.90;68.70;;;;;;4955651;28;20492;-70
2022/05/16 15:17:13;;;;;;;2.60;2.50;;;26.80;70.00;;;;;;4955752;28;20468;-70
2022/05/16 15:19:41;;;;;;;2.10;2.10;;;26.90;70.00;;;;;;4955092;28;20954;-70
2022/05/16 15:22:10;;;;;;;2.40;2.30;;;27.00;71.40;;;;;;4955923;28;20535;-70
2022/05/16 15:24:40;;;;;;;2.60;2.50;;;26.90;70.80;;;;;;4955661;28;20904;-70
2022/05/16 15:27:08;;;;;;;3.30;3.00;;;26.80;69.90;;;;;;4955080;28;21024;-70
2022/05/16 15:29:36;;;;;;;2.97;2.83;;;26.70;70.40;;;;;;4954654;28;21107;-70
2022/05/16 15:32:04;;;;;;;2.63;2.53;;;26.60;69.90;;;;;;4955307;28;20492;-70
2022/05/16 15:34:32;;;;;;;2.37;2.37;;;26.60;71.60;;;;;;4955348;28;20733;-71
2022/05/16 15:36:59;;;;;;;3.57;2.40;;;26.60;70.90;;;;;;4955826;28;20679;-70
2022/05/16 15:39:27;;;;;;;2.27;2.17;;;26.70;70.80;;;;;;4951755;28;20889;-70
2022/05/16 15:41:56;;;;;;;2.67;2.47;;;26.80;71.40;;;;;;4954178;28;20460;-70
2022/05/16 15:44:23;;;;;;;2.90;2.83;;;26.80;71.00;;;;;;4954836;28;20485;-70
2022/05/16 15:46:50;;;;;;;2.60;2.50;;;26.70;70.80;;;;;;4954191;28;20495;-70
2022/05/16 15:49:20;;;;;;;3.00;2.90;;;26.60;70.10;;;;;;4955174;28;20473;-70
2022/05/16 15:51:47;;;;;;;2.33;2.10;;;26.60;69.80;;;;;;4954717;28;20472;-70
2022/05/16 15:54:14;;;;;;;3.00;2.80;;;26.50;70.00;;;;;;4955032;28;20563;-70
2022/05/16 15:56:40;;;;;;;2.60;2.40;;;26.40;70.80;;;;;;4954847;28;20477;-70
2022/05/16 15:59:10;;;;;;;2.70;2.50;;;26.30;70.00;;;;;;4954415;28;20563;-70
2022/05/16 16:01:37;;;;;;;2.97;2.90;;;26.20;71.00;;;;;;4954318;28;20468;-70
2022/05/16 16:09:32;;;;;;;3.20;3.00;;;26.00;72.20;;;;;;4954480;29;20580;-70
2022/05/16 16:11:59;;;;;;;2.50;2.50;;;26.00;71.60;;;;;;4954023;28;20492;-70
2022/05/16 16:14:27;;;;;;;2.60;2.40;;;26.00;71.90;;;;;;4954767;28;20500;-71
2022/05/16 16:16:54;;;;;;;2.17;2.17;;;26.00;71.10;;;;;;4954589;28;20988;-70
2022/05/16 16:19:23;;;;;;;2.70;2.50;;;25.80;71.20;;;;;;4938883;28;20494;-70
2022/05/16 16:21:50;;;;;;;2.83;2.60;;;25.80;71.80;;;;;;4953588;28;20469;-70
2022/05/16 16:24:17;;;;;;;2.30;2.20;;;25.80;71.90;;;;;;4953602;28;21057;-70
2022/05/16 16:26:44;;;;;;;2.33;2.33;;;25.70;71.40;;;;;;4953666;28;20468;-71
2022/05/16 16:29:11;;;;;;;2.67;2.47;;;25.60;72.20;;;;;;4953486;28;20471;-71
2022/05/16 16:31:40;;;;;;;4.40;2.60;;;25.60;72.70;;;;;;4953458;28;20531;-71
2022/05/16 16:34:09;;;;;;;7.87;2.90;;;25.60;73.30;;;;;;4953973;28;20496;-70
2022/05/16 16:36:36;;;;;;;2.93;2.77;;;25.60;72.00;;;;;;4953810;28;20631;-71
2022/05/16 16:39:04;;;;;;;2.80;2.70;;;25.60;73.40;;;;;;4954238;28;20559;-70
2022/05/16 16:41:32;;;;;;;2.53;2.33;;;25.60;73.10;;;;;;4952977;28;20838;-71
2022/05/16 16:43:59;;;;;;;4.70;2.60;;;25.50;72.10;;;;;;4953381;28;20496;-70
2022/05/16 16:46:28;;;;;;;4.60;2.60;;;25.40;72.00;;;;;;4954073;28;20556;-70
2022/05/16 16:48:57;;;;;;;2.80;2.70;;;25.30;72.50;;;;;;4953791;28;20580;-70
2022/05/16 16:59:40;;;;;;;2.90;2.70;;;25.20;73.80;;;;;;4953239;28;20452;-71
2022/05/16 17:02:11;;;;;;;2.87;2.77;;;25.20;73.10;;;;;;4954212;28;20954;-71
2022/05/16 17:04:39;;;;;;;3.07;2.87;;;25.10;73.80;;;;;;4954321;28;20499;-71
2022/05/16 17:07:07;;;;;;;3.53;2.50;;;25.10;74.40;;;;;;4954192;28;20468;-71
2022/05/16 17:09:34;;;;;;;3.70;3.43;;;25.10;73.70;;;;;;4953269;28;20496;-72
2022/05/16 17:12:01;;;;;;;2.83;2.60;;;25.00;76.40;;;;;;4954259;28;20950;-71
2022/05/16 17:14:28;;;;;;;2.73;2.33;;;25.00;77.90;;;;;;4954129;28;21004;-71
2022/05/16 17:16:54;;;;;;;4.47;2.40;;;24.70;77.90;;;;;;4954891;28;20473;-71
2022/05/16 17:19:23;;;;;;;2.87;2.63;;;24.70;78.30;;;;;;4954327;28;20464;-71
2022/05/16 17:21:51;;;;;;;2.60;2.43;;;24.60;78.50;;;;;;4953443;28;20492;-71
2022/05/16 17:24:17;;;;;;;3.87;2.60;;;24.50;78.50;;;;;;4954378;28;20488;-71
2022/05/16 17:26:44;;;;;;;3.03;2.70;;;24.40;78.60;;;;;;4964866;28;20469;-71
2022/05/16 17:29:12;;;;;;;3.50;2.80;;;24.40;78.60;;;;;;4963681;28;20460;-71
2022/05/16 17:31:43;;;;;;;2.90;2.70;;;24.30;78.60;;;;;;4962440;28;20716;-71
2022/05/16 17:34:09;;;;;;;2.70;2.50;;;24.20;78.20;;;;;;4961676;28;20512;-70
2022/05/16 17:36:36;;;;;;;2.73;2.63;;;24.10;78.80;;;;;;4955029;28;20469;-71
2022/05/16 17:39:07;;;;;;;2.70;2.50;;;24.10;79.10;;;;;;4953540;28;20659;-71
2022/05/16 17:41:34;;;;;;;2.70;2.53;;;23.90;79.40;;;;;;4951770;28;20475;-71
2022/05/16 17:44:01;;;;;;;2.93;2.43;;;23.80;79.60;;;;;;4953499;28;20565;-71
2022/05/16 17:46:27;;;;;;;3.13;2.87;;;23.70;79.90;;;;;;4954673;28;20460;-71
2022/05/16 17:48:54;;;;;;;2.70;2.50;;;23.70;80.00;;;;;;4955016;28;20536;-71